Wetterdaten: Woche 20.07.15 - 26.07.15 (KW30)
Datum Zeit Temperatur Luftfeuchte Luftdruck Niederschlag Windrichtung Sonnenschein Solar Wind
20.07.2015 00:00 19,3 C 93 % 1012,3 hPa 0,0 l/m W-SW 0,00 h 0 W/m 0,9 km/h (0 Bft)
20.07.2015 01:00 18,2 C 96 % 1012,5 hPa 0,0 l/m N 0,00 h 0 W/m 0,0 km/h (0 Bft)
20.07.2015 02:00 17,4 C 97 % 1012,4 hPa 0,0 l/m N 0,00 h 0 W/m 0,0 km/h (0 Bft)
20.07.2015 03:00 17,1 C 97 % 1012,5 hPa 0,0 l/m N 0,00 h 0 W/m 0,0 km/h (0 Bft)
20.07.2015 04:00 17,1 C 98 % 1012,4 hPa 0,0 l/m N 0,00 h 0 W/m 0,0 km/h (0 Bft)
20.07.2015 05:00 17,2 C 98 % 1012,4 hPa 0,0 l/m N 0,00 h 5 W/m 0,0 km/h (0 Bft)
20.07.2015 06:00 17,6 C 99 % 1012,6 hPa 0,2 l/m N 0,00 h 23 W/m 0,3 km/h (0 Bft)
20.07.2015 07:00 18,5 C 99 % 1012,8 hPa 0,0 l/m W-SW 0,08 h 86 W/m 1,9 km/h (1 Bft)
20.07.2015 08:00 20,3 C 93 % 1013,0 hPa 0,0 l/m W-SW 0,67 h 283 W/m 3,3 km/h (1 Bft)
20.07.2015 09:00 22,1 C 80 % 1012,9 hPa 0,0 l/m W-SW 0,75 h 400 W/m 9,0 km/h (2 Bft)
20.07.2015 10:00 22,8 C 73 % 1012,8 hPa 0,0 l/m W 0,67 h 556 W/m 12,9 km/h (3 Bft)
20.07.2015 11:00 24,1 C 64 % 1012,8 hPa 0,0 l/m W 0,75 h 708 W/m 16,4 km/h (3 Bft)
20.07.2015 12:00 24,8 C 61 % 1012,7 hPa 0,0 l/m W 0,42 h 530 W/m 14,4 km/h (3 Bft)
20.07.2015 13:00 26,3 C 57 % 1012,4 hPa 0,0 l/m W-NW 0,75 h 718 W/m 15,6 km/h (3 Bft)
20.07.2015 14:00 27,4 C 54 % 1011,9 hPa 0,0 l/m SW 1,00 h 923 W/m 12,8 km/h (3 Bft)
20.07.2015 15:00 28,1 C 52 % 1011,5 hPa 0,0 l/m NW 0,50 h 512 W/m 11,3 km/h (2 Bft)
20.07.2015 16:00 28,6 C 50 % 1011,1 hPa 0,0 l/m NW 0,83 h 708 W/m 9,8 km/h (2 Bft)
20.07.2015 17:00 28,5 C 51 % 1011,0 hPa 0,0 l/m N-NW 0,58 h 341 W/m 5,3 km/h (1 Bft)
20.07.2015 18:00 28,3 C 52 % 1010,7 hPa 0,0 l/m N-NW 0,75 h 342 W/m 4,1 km/h (1 Bft)
20.07.2015 19:00 27,9 C 53 % 1010,8 hPa 0,0 l/m N 0,50 h 148 W/m 4,5 km/h (1 Bft)
20.07.2015 20:00 25,5 C 66 % 1011,0 hPa 0,0 l/m N 0,00 h 25 W/m 1,3 km/h (1 Bft)
20.07.2015 21:00 23,6 C 70 % 1011,4 hPa 0,0 l/m N 0,00 h 6 W/m 0,9 km/h (0 Bft)
20.07.2015 22:00 21,8 C 78 % 1011,9 hPa 0,0 l/m N 0,00 h 0 W/m 0,3 km/h (0 Bft)
20.07.2015 23:00 21,3 C 79 % 1012,2 hPa 0,0 l/m N 0,00 h 0 W/m 1,1 km/h (0 Bft)
21.07.2015 00:00 21,1 C 79 % 1012,5 hPa 0,0 l/m N 0,00 h 0 W/m 0,4 km/h (0 Bft)
21.07.2015 01:00 21,0 C 79 % 1012,6 hPa 0,0 l/m N 0,00 h 0 W/m 1,1 km/h (0 Bft)
21.07.2015 02:00 20,5 C 81 % 1012,5 hPa 0,0 l/m N 0,00 h 0 W/m 2,7 km/h (1 Bft)
21.07.2015 03:00 19,6 C 85 % 1012,4 hPa 0,0 l/m N 0,00 h 0 W/m 0,1 km/h (0 Bft)
21.07.2015 04:00 18,3 C 90 % 1012,4 hPa 0,0 l/m N 0,00 h 0 W/m 0,1 km/h (0 Bft)
21.07.2015 05:00 17,3 C 93 % 1012,6 hPa 0,0 l/m N 0,00 h 6 W/m 0,0 km/h (0 Bft)
21.07.2015 06:00 17,3 C 94 % 1013,0 hPa 0,0 l/m N 0,00 h 33 W/m 2,4 km/h (1 Bft)
21.07.2015 07:00 19,9 C 86 % 1013,2 hPa 0,0 l/m N 0,58 h 156 W/m 0,9 km/h (0 Bft)
21.07.2015 08:00 22,2 C 78 % 1013,3 hPa 0,0 l/m N 1,00 h 330 W/m 1,3 km/h (1 Bft)
21.07.2015 09:00 23,5 C 74 % 1013,3 hPa 0,0 l/m N-NO 1,00 h 479 W/m 3,3 km/h (1 Bft)
21.07.2015 10:00 25,4 C 68 % 1013,2 hPa 0,0 l/m S-SO 1,00 h 633 W/m 5,8 km/h (1 Bft)
21.07.2015 11:00 26,8 C 62 % 1013,1 hPa 0,0 l/m W-SW 0,92 h 736 W/m 12,5 km/h (3 Bft)
21.07.2015 12:00 28,0 C 59 % 1012,8 hPa 0,0 l/m SW 0,83 h 769 W/m 12,2 km/h (2 Bft)
21.07.2015 13:00 29,5 C 52 % 1012,7 hPa 0,0 l/m W-SW 1,00 h 928 W/m 13,8 km/h (3 Bft)
21.07.2015 14:00 29,7 C 49 % 1012,3 hPa 0,0 l/m W-SW 0,58 h 534 W/m 6,6 km/h (2 Bft)
21.07.2015 15:00 30,9 C 44 % 1011,9 hPa 0,0 l/m SW 0,92 h 800 W/m 11,4 km/h (2 Bft)
21.07.2015 16:00 31,8 C 41 % 1011,4 hPa 0,0 l/m SW 1,00 h 698 W/m 8,2 km/h (2 Bft)
21.07.2015 17:00 32,1 C 41 % 1011,0 hPa 0,0 l/m SW 1,00 h 557 W/m 10,3 km/h (2 Bft)
21.07.2015 18:00 31,7 C 41 % 1010,7 hPa 0,0 l/m SW 1,00 h 388 W/m 8,2 km/h (2 Bft)
21.07.2015 19:00 30,2 C 47 % 1010,6 hPa 0,0 l/m N 1,00 h 216 W/m 3,2 km/h (1 Bft)
21.07.2015 20:00 26,8 C 64 % 1010,5 hPa 0,0 l/m N 0,00 h 26 W/m 0,1 km/h (0 Bft)
21.07.2015 21:00 24,0 C 72 % 1011,0 hPa 0,0 l/m N 0,00 h 6 W/m 0,0 km/h (0 Bft)
21.07.2015 22:00 22,5 C 73 % 1011,7 hPa 0,0 l/m S-SW 0,00 h 0 W/m 1,1 km/h (0 Bft)
21.07.2015 23:00 21,6 C 78 % 1011,7 hPa 0,0 l/m N 0,00 h 0 W/m 0,9 km/h (0 Bft)
22.07.2015 00:00 20,6 C 81 % 1011,6 hPa 0,0 l/m N 0,00 h 0 W/m 1,3 km/h (1 Bft)
22.07.2015 01:00 19,9 C 84 % 1011,5 hPa 0,0 l/m N 0,00 h 0 W/m 0,4 km/h (0 Bft)
22.07.2015 02:00 19,3 C 87 % 1011,4 hPa 0,0 l/m N 0,00 h 0 W/m 0,0 km/h (0 Bft)
22.07.2015 03:00 18,7 C 89 % 1011,1 hPa 0,0 l/m N 0,00 h 0 W/m 0,0 km/h (0 Bft)
22.07.2015 04:00 18,0 C 91 % 1011,1 hPa 0,0 l/m S-SW 0,00 h 0 W/m 0,7 km/h (0 Bft)
22.07.2015 05:00 17,2 C 94 % 1011,1 hPa 0,0 l/m N 0,00 h 6 W/m 0,0 km/h (0 Bft)
22.07.2015 06:00 17,4 C 94 % 1011,2 hPa 0,0 l/m N 0,08 h 37 W/m 0,0 km/h (0 Bft)
22.07.2015 07:00 20,2 C 86 % 1011,2 hPa 0,0 l/m N 0,75 h 156 W/m 0,0 km/h (0 Bft)
22.07.2015 08:00 22,6 C 77 % 1011,3 hPa 0,0 l/m N 0,92 h 322 W/m 0,0 km/h (0 Bft)
22.07.2015 09:00 24,8 C 70 % 1011,1 hPa 0,0 l/m S-SW 1,00 h 473 W/m 2,4 km/h (1 Bft)
22.07.2015 10:00 26,9 C 64 % 1010,8 hPa 0,0 l/m N 1,00 h 612 W/m 0,0 km/h (0 Bft)
22.07.2015 11:00 29,1 C 56 % 1010,5 hPa 0,0 l/m S 0,92 h 701 W/m 4,0 km/h (1 Bft)
22.07.2015 12:00 30,3 C 48 % 1010,0 hPa 0,0 l/m O 0,92 h 747 W/m 7,1 km/h (2 Bft)
22.07.2015 13:00 32,0 C 42 % 1009,6 hPa 0,0 l/m SO 1,00 h 854 W/m 7,6 km/h (2 Bft)
22.07.2015 14:00 32,6 C 39 % 1008,7 hPa 0,0 l/m N-NW 1,00 h 827 W/m 8,2 km/h (2 Bft)
22.07.2015 15:00 33,4 C 36 % 1008,1 hPa 0,0 l/m N 1,00 h 785 W/m 9,5 km/h (2 Bft)
22.07.2015 16:00 33,9 C 34 % 1007,7 hPa 0,0 l/m N-NW 0,83 h 610 W/m 8,7 km/h (2 Bft)
22.07.2015 17:00 29,9 C 49 % 1007,9 hPa 0,6 l/m W-NW 0,00 h 78 W/m 14,2 km/h (3 Bft)
22.07.2015 18:00 24,4 C 82 % 1008,9 hPa 1,6 l/m N-NW 0,67 h 284 W/m 8,0 km/h (2 Bft)
22.07.2015 19:00 23,7 C 85 % 1009,4 hPa 0,0 l/m SO 0,00 h 59 W/m 7,2 km/h (2 Bft)
22.07.2015 20:00 22,4 C 88 % 1010,3 hPa 0,0 l/m SW 0,00 h 8 W/m 7,6 km/h (2 Bft)
22.07.2015 21:00 21,6 C 91 % 1010,6 hPa 1,6 l/m SW 0,00 h 0 W/m 4,7 km/h (1 Bft)
22.07.2015 22:00 20,6 C 95 % 1011,1 hPa 0,2 l/m N 0,00 h 0 W/m 2,0 km/h (1 Bft)
22.07.2015 23:00 20,2 C 95 % 1011,2 hPa 0,0 l/m W-SW 0,00 h 0 W/m 5,3 km/h (1 Bft)
23.07.2015 00:00 20,1 C 94 % 1011,2 hPa 0,0 l/m W-SW 0,00 h 0 W/m 3,8 km/h (1 Bft)
23.07.2015 01:00 20,0 C 90 % 1011,2 hPa 0,0 l/m W 0,00 h 0 W/m 6,0 km/h (2 Bft)
23.07.2015 02:00 19,8 C 93 % 1011,7 hPa 0,2 l/m W 0,00 h 0 W/m 3,2 km/h (1 Bft)
23.07.2015 03:00 19,4 C 93 % 1011,6 hPa 0,0 l/m W-NW 0,00 h 0 W/m 8,2 km/h (2 Bft)
23.07.2015 04:00 18,8 C 95 % 1011,4 hPa 2,2 l/m W-NW 0,00 h 0 W/m 2,4 km/h (1 Bft)
23.07.2015 05:00 18,2 C 97 % 1011,8 hPa 0,0 l/m W-NW 0,00 h 0 W/m 4,8 km/h (1 Bft)
23.07.2015 06:00 18,4 C 97 % 1012,2 hPa 0,0 l/m NW 0,00 h 6 W/m 3,1 km/h (1 Bft)
23.07.2015 07:00 18,4 C 97 % 1012,4 hPa 1,4 l/m NW 0,00 h 12 W/m 4,8 km/h (1 Bft)
23.07.2015 08:00 17,7 C 97 % 1013,1 hPa 6,8 l/m N 0,00 h 22 W/m 12,5 km/h (3 Bft)
23.07.2015 09:00 16,9 C 97 % 1013,8 hPa 3,0 l/m N-NW 0,00 h 36 W/m 12,0 km/h (2 Bft)
23.07.2015 10:00 16,8 C 98 % 1014,3 hPa 2,2 l/m N 0,00 h 58 W/m 6,8 km/h (2 Bft)
23.07.2015 11:00 16,7 C 97 % 1014,6 hPa 0,2 l/m N-NO 0,00 h 73 W/m 9,0 km/h (2 Bft)
23.07.2015 12:00 16,7 C 95 % 1014,7 hPa 0,0 l/m N-NO 0,00 h 158 W/m 11,0 km/h (2 Bft)
23.07.2015 13:00 17,1 C 90 % 1014,6 hPa 0,0 l/m O-NO 0,08 h 279 W/m 8,2 km/h (2 Bft)
23.07.2015 14:00 20,1 C 78 % 1014,0 hPa 0,0 l/m O-SO 1,00 h 717 W/m 10,6 km/h (2 Bft)
23.07.2015 15:00 21,4 C 68 % 1013,5 hPa 0,0 l/m N-NO 0,67 h 452 W/m 11,0 km/h (2 Bft)
23.07.2015 16:00 21,3 C 68 % 1013,4 hPa 0,0 l/m O-NO 0,00 h 248 W/m 8,4 km/h (2 Bft)
23.07.2015 17:00 22,3 C 64 % 1013,1 hPa 0,0 l/m O 0,67 h 382 W/m 11,2 km/h (2 Bft)
23.07.2015 18:00 22,9 C 60 % 1012,6 hPa 0,0 l/m O-SO 1,00 h 346 W/m 7,3 km/h (2 Bft)
23.07.2015 19:00 22,1 C 63 % 1012,3 hPa 0,0 l/m O 0,50 h 121 W/m 8,1 km/h (2 Bft)
23.07.2015 20:00 19,8 C 80 % 1012,7 hPa 0,0 l/m N 0,00 h 24 W/m 0,0 km/h (0 Bft)
23.07.2015 21:00 18,7 C 86 % 1012,8 hPa 0,0 l/m N 0,00 h 5 W/m 0,3 km/h (0 Bft)
23.07.2015 22:00 18,6 C 86 % 1013,0 hPa 0,0 l/m N 0,00 h 0 W/m 1,9 km/h (1 Bft)
23.07.2015 23:00 18,1 C 89 % 1012,7 hPa 0,0 l/m N 0,00 h 0 W/m 0,1 km/h (0 Bft)
24.07.2015 00:00 17,1 C 92 % 1012,5 hPa 0,0 l/m O 0,00 h 0 W/m 2,1 km/h (1 Bft)
24.07.2015 01:00 16,4 C 94 % 1012,1 hPa 0,0 l/m N 0,00 h 0 W/m 1,1 km/h (0 Bft)
24.07.2015 02:00 16,0 C 95 % 1011,5 hPa 0,0 l/m N 0,00 h 0 W/m 1,1 km/h (0 Bft)
24.07.2015 03:00 15,7 C 96 % 1011,4 hPa 0,0 l/m N 0,00 h 0 W/m 0,1 km/h (0 Bft)
24.07.2015 04:00 15,3 C 96 % 1011,0 hPa 0,0 l/m O 0,00 h 0 W/m 2,3 km/h (1 Bft)
24.07.2015 05:00 15,1 C 96 % 1010,7 hPa 0,0 l/m O 0,00 h 5 W/m 1,5 km/h (1 Bft)
24.07.2015 06:00 15,0 C 97 % 1010,6 hPa 0,0 l/m N 0,00 h 16 W/m 0,9 km/h (0 Bft)
24.07.2015 07:00 15,8 C 96 % 1010,6 hPa 0,0 l/m O 0,00 h 102 W/m 3,9 km/h (1 Bft)
24.07.2015 08:00 18,4 C 88 % 1010,5 hPa 0,0 l/m O-NO 0,75 h 274 W/m 8,4 km/h (2 Bft)
24.07.2015 09:00 20,9 C 79 % 1010,1 hPa 0,0 l/m O 1,00 h 457 W/m 12,9 km/h (3 Bft)
24.07.2015 10:00 22,6 C 73 % 1009,8 hPa 0,0 l/m O-SO 0,92 h 513 W/m 13,7 km/h (3 Bft)
24.07.2015 11:00 23,7 C 68 % 1009,2 hPa 0,0 l/m O 1,00 h 661 W/m 13,2 km/h (3 Bft)
24.07.2015 12:00 24,8 C 66 % 1008,5 hPa 0,0 l/m O-SO 0,92 h 749 W/m 14,5 km/h (3 Bft)
24.07.2015 13:00 25,4 C 64 % 1007,8 hPa 0,0 l/m O-SO 1,00 h 864 W/m 13,6 km/h (3 Bft)
24.07.2015 14:00 26,6 C 60 % 1007,1 hPa 0,0 l/m O 1,00 h 848 W/m 12,8 km/h (3 Bft)
24.07.2015 15:00 27,8 C 55 % 1006,3 hPa 0,0 l/m O-SO 1,00 h 777 W/m 11,6 km/h (2 Bft)
24.07.2015 16:00 28,4 C 53 % 1005,3 hPa 0,0 l/m O 1,00 h 669 W/m 10,2 km/h (2 Bft)
24.07.2015 17:00 29,0 C 51 % 1004,6 hPa 0,0 l/m O 1,00 h 534 W/m 11,2 km/h (2 Bft)
24.07.2015 18:00 29,1 C 52 % 1003,8 hPa 0,0 l/m O-SO 0,92 h 363 W/m 9,5 km/h (2 Bft)
24.07.2015 19:00 27,4 C 58 % 1003,5 hPa 0,0 l/m O-SO 0,00 h 70 W/m 3,3 km/h (1 Bft)
24.07.2015 20:00 24,6 C 73 % 1003,6 hPa 0,0 l/m S-SW 0,00 h 16 W/m 5,4 km/h (1 Bft)
24.07.2015 21:00 23,2 C 68 % 1004,2 hPa 0,0 l/m S-SW 0,00 h 0 W/m 26,4 km/h (4 Bft)
24.07.2015 22:00 19,6 C 85 % 1005,9 hPa 1,8 l/m W 0,00 h 0 W/m 30,7 km/h (5 Bft)
24.07.2015 23:00 17,9 C 93 % 1006,9 hPa 2,6 l/m W 0,00 h 0 W/m 21,9 km/h (4 Bft)
25.07.2015 00:00 17,6 C 94 % 1006,2 hPa 0,4 l/m SW 0,00 h 0 W/m 7,1 km/h (2 Bft)
25.07.2015 01:00 17,2 C 95 % 1005,1 hPa 0,2 l/m SW 0,00 h 0 W/m 22,0 km/h (4 Bft)
25.07.2015 02:00 17,1 C 96 % 1003,7 hPa 0,0 l/m SW 0,00 h 0 W/m 18,0 km/h (3 Bft)
25.07.2015 03:00 17,1 C 96 % 1003,8 hPa 0,0 l/m W-SW 0,00 h 0 W/m 19,3 km/h (3 Bft)
25.07.2015 04:00 17,3 C 92 % 1004,3 hPa 0,0 l/m W-SW 0,00 h 0 W/m 15,6 km/h (3 Bft)
25.07.2015 05:00 17,2 C 90 % 1004,9 hPa 0,0 l/m W-SW 0,00 h 0 W/m 14,9 km/h (3 Bft)
25.07.2015 06:00 16,8 C 93 % 1004,9 hPa 0,0 l/m W-SW 0,00 h 12 W/m 8,7 km/h (2 Bft)
25.07.2015 07:00 17,5 C 90 % 1005,0 hPa 0,0 l/m SW 0,25 h 90 W/m 13,6 km/h (3 Bft)
25.07.2015 08:00 19,0 C 85 % 1005,1 hPa 0,0 l/m W 0,75 h 267 W/m 24,5 km/h (4 Bft)
25.07.2015 09:00 20,0 C 76 % 1005,6 hPa 0,0 l/m W 0,92 h 467 W/m 32,5 km/h (5 Bft)
25.07.2015 10:00 20,4 C 68 % 1006,1 hPa 0,0 l/m W-NW 0,58 h 454 W/m 35,5 km/h (5 Bft)
25.07.2015 11:00 21,3 C 61 % 1006,5 hPa 0,0 l/m W-NW 1,00 h 774 W/m 35,1 km/h (5 Bft)
25.07.2015 12:00 21,3 C 57 % 1007,2 hPa 0,0 l/m W 0,92 h 810 W/m 38,5 km/h (5 Bft)
25.07.2015 13:00 21,9 C 53 % 1007,7 hPa 0,0 l/m W-NW 1,00 h 902 W/m 35,8 km/h (5 Bft)
25.07.2015 14:00 22,4 C 47 % 1008,3 hPa 0,0 l/m W-NW 0,92 h 846 W/m 37,1 km/h (5 Bft)
25.07.2015 15:00 22,4 C 42 % 1008,9 hPa 0,0 l/m W 0,58 h 576 W/m 35,1 km/h (5 Bft)
25.07.2015 16:00 22,1 C 42 % 1009,3 hPa 0,0 l/m W 0,92 h 750 W/m 37,3 km/h (5 Bft)
25.07.2015 17:00 21,9 C 40 % 1009,8 hPa 0,0 l/m W-NW 1,00 h 577 W/m 34,3 km/h (5 Bft)
25.07.2015 18:00 21,5 C 39 % 1010,4 hPa 0,0 l/m W-NW 1,00 h 409 W/m 35,5 km/h (5 Bft)
25.07.2015 19:00 19,9 C 46 % 1011,5 hPa 0,0 l/m W-NW 1,00 h 219 W/m 29,4 km/h (5 Bft)
25.07.2015 20:00 17,8 C 53 % 1012,5 hPa 0,0 l/m W-NW 0,17 h 23 W/m 20,0 km/h (4 Bft)
25.07.2015 21:00 16,1 C 62 % 1013,7 hPa 0,0 l/m N-NW 0,00 h 5 W/m 14,4 km/h (3 Bft)
25.07.2015 22:00 14,9 C 68 % 1014,8 hPa 0,0 l/m NW 0,00 h 0 W/m 10,7 km/h (2 Bft)
25.07.2015 23:00 13,7 C 74 % 1015,4 hPa 0,0 l/m N 0,00 h 0 W/m 1,7 km/h (1 Bft)
26.07.2015 00:00 12,8 C 79 % 1015,8 hPa 0,0 l/m N 0,00 h 0 W/m 0,7 km/h (0 Bft)
26.07.2015 01:00 13,0 C 70 % 1016,2 hPa 0,0 l/m NW 0,00 h 0 W/m 7,2 km/h (2 Bft)
26.07.2015 02:00 12,4 C 75 % 1015,9 hPa 0,0 l/m N 0,00 h 0 W/m 0,0 km/h (0 Bft)
26.07.2015 03:00 12,1 C 80 % 1016,1 hPa 0,0 l/m N 0,00 h 0 W/m 0,1 km/h (0 Bft)
26.07.2015 04:00 11,7 C 82 % 1015,9 hPa 0,0 l/m N 0,00 h 0 W/m 0,0 km/h (0 Bft)
26.07.2015 05:00 10,3 C 86 % 1016,0 hPa 0,0 l/m N 0,00 h 5 W/m 0,0 km/h (0 Bft)
26.07.2015 06:00 9,5 C 89 % 1015,8 hPa 0,0 l/m N 0,00 h 27 W/m 0,1 km/h (0 Bft)
26.07.2015 07:00 11,6 C 82 % 1015,5 hPa 0,0 l/m N 0,58 h 153 W/m 0,1 km/h (0 Bft)
26.07.2015 08:00 14,6 C 66 % 1015,3 hPa 0,0 l/m NW 1,00 h 329 W/m 3,3 km/h (1 Bft)
26.07.2015 09:00 16,0 C 55 % 1014,9 hPa 0,0 l/m O-NO 1,00 h 477 W/m 7,0 km/h (2 Bft)
26.07.2015 10:00 17,0 C 47 % 1014,3 hPa 0,0 l/m O-NO 0,92 h 626 W/m 9,8 km/h (2 Bft)
26.07.2015 11:00 18,1 C 46 % 1013,3 hPa 0,0 l/m O-NO 1,00 h 751 W/m 10,2 km/h (2 Bft)
26.07.2015 12:00 19,0 C 47 % 1012,2 hPa 0,0 l/m O-SO 1,00 h 750 W/m 10,8 km/h (2 Bft)
26.07.2015 13:00 20,2 C 46 % 1011,2 hPa 0,0 l/m SO 1,00 h 717 W/m 10,7 km/h (2 Bft)
26.07.2015 14:00 20,4 C 47 % 1010,1 hPa 0,0 l/m S 0,50 h 530 W/m 6,7 km/h (2 Bft)
26.07.2015 15:00 21,2 C 45 % 1009,2 hPa 0,0 l/m SO 0,83 h 600 W/m 7,5 km/h (2 Bft)
26.07.2015 16:00 20,9 C 47 % 1008,5 hPa 0,0 l/m S 0,08 h 201 W/m 6,8 km/h (2 Bft)
26.07.2015 17:00 19,7 C 53 % 1008,0 hPa 0,0 l/m S-SW 0,00 h 87 W/m 2,7 km/h (1 Bft)
26.07.2015 18:00 19,3 C 57 % 1007,4 hPa 0,0 l/m N 0,00 h 94 W/m 2,4 km/h (1 Bft)
26.07.2015 19:00 18,7 C 61 % 1007,1 hPa 0,0 l/m S-SW 0,00 h 25 W/m 5,2 km/h (1 Bft)
26.07.2015 20:00 16,9 C 71 % 1008,2 hPa 0,8 l/m W-SW 0,00 h 7 W/m 11,6 km/h (2 Bft)
26.07.2015 21:00 13,9 C 89 % 1008,6 hPa 2,6 l/m W 0,00 h 0 W/m 5,6 km/h (1 Bft)
26.07.2015 22:00 13,5 C 94 % 1008,2 hPa 1,2 l/m W 0,00 h 0 W/m 4,4 km/h (1 Bft)
26.07.2015 23:00 12,9 C 94 % 1007,6 hPa 0,0 l/m W-SW 0,00 h 0 W/m 10,8 km/h (2 Bft)
Min-Datum _ 26.07.15 22.07.15 24.07.15 - - - - 20.07.15
_ Min-Zeit 06:05 16:10 19:50 - - - - 00:05
Minimum _ 9,4 C 31 % 1003,3 hPa - - - - 0,0 km/h (0 Bft)
Max-Datum _ 22.07.15 20.07.15 26.07.15 23.07.15 - 20.07.15 25.07.15 25.07.15
_ Max-Zeit 16:10 05:50 03:30 08:45 - 07:25 13:55 16:55
Maximum _ 34,3 C 99 % 1016,4 hPa 6,8 l/m - 0,08 h 1014 W/m 54,7 km/h
W (7 Bft)
Durchschnitt _ 21,0 C 74 % 1010,8 hPa #29,8 l/m W-SW #63:30 h 374 W/m 8,4 km/h (2 Bft)